sensor_id;sensor_type;location;lat;lon;timestamp;pressure;altitude;pressure_sealevel;temperature;humidity
76766;BME280;65707;52.362;6.588;2024-01-10T00:00:05;103428.69;;;-3.71;65.06
76766;BME280;65707;52.362;6.588;2024-01-10T00:02:34;103427.84;;;-3.71;65.06
76766;BME280;65707;52.362;6.588;2024-01-10T00:05:00;103427.72;;;-3.59;64.67
76766;BME280;65707;52.362;6.588;2024-01-10T00:07:30;103425.94;;;-3.56;64.26
76766;BME280;65707;52.362;6.588;2024-01-10T00:09:56;103425.16;;;-3.64;65.02
76766;BME280;65707;52.362;6.588;2024-01-10T00:12:25;103423.38;;;-3.60;65.20
76766;BME280;65707;52.362;6.588;2024-01-10T00:14:51;103414.72;;;-3.68;64.78
76766;BME280;65707;52.362;6.588;2024-01-10T00:17:18;103420.91;;;-3.77;65.21
76766;BME280;65707;52.362;6.588;2024-01-10T00:19:45;103425.31;;;-3.79;64.78
76766;BME280;65707;52.362;6.588;2024-01-10T00:22:12;103422.63;;;-3.71;64.81
76766;BME280;65707;52.362;6.588;2024-01-10T00:24:40;103417.47;;;-3.82;64.78
76766;BME280;65707;52.362;6.588;2024-01-10T00:27:07;103423.63;;;-3.86;65.36
76766;BME280;65707;52.362;6.588;2024-01-10T00:29:33;103417.44;;;-3.79;65.32
76766;BME280;65707;52.362;6.588;2024-01-10T00:32:00;103416.69;;;-3.90;65.12
76766;BME280;65707;52.362;6.588;2024-01-10T00:34:27;103411.31;;;-3.78;65.33
76766;BME280;65707;52.362;6.588;2024-01-10T00:36:53;103412.25;;;-3.86;65.02
76766;BME280;65707;52.362;6.588;2024-01-10T00:39:20;103410.47;;;-3.83;65.08
76766;BME280;65707;52.362;6.588;2024-01-10T00:41:48;103409.66;;;-3.91;65.66
76766;BME280;65707;52.362;6.588;2024-01-10T00:44:15;103400.97;;;-3.94;65.11
76766;BME280;65707;52.362;6.588;2024-01-10T00:46:41;103401.91;;;-4.00;65.10
76766;BME280;65707;52.362;6.588;2024-01-10T00:49:08;103399.13;;;-3.85;65.04
76766;BME280;65707;52.362;6.588;2024-01-10T00:51:35;103397.34;;;-3.81;64.99
76766;BME280;65707;52.362;6.588;2024-01-10T00:54:01;103387.84;;;-3.91;64.68
76766;BME280;65707;52.362;6.588;2024-01-10T00:56:28;103391.38;;;-3.95;65.34
76766;BME280;65707;52.362;6.588;2024-01-10T00:58:56;103387.88;;;-3.97;64.89
76766;BME280;65707;52.362;6.588;2024-01-10T01:01:23;103383.63;;;-4.09;65.59
76766;BME280;65707;52.362;6.588;2024-01-10T01:03:50;103384.41;;;-3.96;65.15
76766;BME280;65707;52.362;6.588;2024-01-10T01:06:16;103383.38;;;-3.85;64.85
76766;BME280;65707;52.362;6.588;2024-01-10T01:08:43;103388.06;;;-4.15;65.15
76766;BME280;65707;52.362;6.588;2024-01-10T01:11:10;103385.41;;;-4.11;65.55
76766;BME280;65707;52.362;6.588;2024-01-10T01:13:37;103396.81;;;-4.15;65.26
76766;BME280;65707;52.362;6.588;2024-01-10T01:16:05;103394.09;;;-4.07;65.39
76766;BME280;65707;52.362;6.588;2024-01-10T01:18:32;103394.97;;;-4.07;66.00
76766;BME280;65707;52.362;6.588;2024-01-10T01:20:59;103393.19;;;-4.05;65.84
76766;BME280;65707;52.362;6.588;2024-01-10T01:23:26;103395.75;;;-3.99;65.36
76766;BME280;65707;52.362;6.588;2024-01-10T01:25:52;103399.31;;;-4.04;65.46
76766;BME280;65707;52.362;6.588;2024-01-10T01:28:19;103394.06;;;-4.03;65.63
76766;BME280;65707;52.362;6.588;2024-01-10T01:30:45;103389.69;;;-4.01;65.53
76766;BME280;65707;52.362;6.588;2024-01-10T01:33:13;103395.00;;;-4.11;66.16
76766;BME280;65707;52.362;6.588;2024-01-10T01:35:40;103387.19;;;-4.16;66.50
76766;BME280;65707;52.362;6.588;2024-01-10T01:38:07;103388.06;;;-4.15;66.45
76766;BME280;65707;52.362;6.588;2024-01-10T01:40:33;103384.50;;;-4.10;66.15
76766;BME280;65707;52.362;6.588;2024-01-10T01:43:00;103384.41;;;-3.96;66.42
76766;BME280;65707;52.362;6.588;2024-01-10T01:45:27;103377.53;;;-4.11;65.96
76766;BME280;65707;52.362;6.588;2024-01-10T01:47:53;103385.38;;;-4.08;66.16
76766;BME280;65707;52.362;6.588;2024-01-10T01:50:21;103380.88;;;-3.95;65.42
76766;BME280;65707;52.362;6.588;2024-01-10T01:52:49;103386.25;;;-4.09;66.11
76766;BME280;65707;52.362;6.588;2024-01-10T01:55:16;103381.03;;;-4.10;66.84
76766;BME280;65707;52.362;6.588;2024-01-10T01:57:44;103376.59;;;-4.04;66.43
76766;BME280;65707;52.362;6.588;2024-01-10T02:00:11;103374.94;;;-4.14;66.15
76766;BME280;65707;52.362;6.588;2024-01-10T02:02:39;103372.28;;;-4.11;65.93
76766;BME280;65707;52.362;6.588;2024-01-10T02:05:06;103374.97;;;-4.18;66.75
76766;BME280;65707;52.362;6.588;2024-01-10T02:07:35;103369.72;;;-4.17;66.44
76766;BME280;65707;52.362;6.588;2024-01-10T02:10:02;103373.13;;;-4.07;66.80
76766;BME280;65707;52.362;6.588;2024-01-10T02:12:29;103366.16;;;-4.10;66.57
76766;BME280;65707;52.362;6.588;2024-01-10T02:14:56;103368.75;;;-4.05;66.11
76766;BME280;65707;52.362;6.588;2024-01-10T02:17:23;103361.88;;;-4.18;66.27
76766;BME280;65707;52.362;6.588;2024-01-10T02:20:07;103356.63;;;-4.17;67.09
76766;BME280;65707;52.362;6.588;2024-01-10T02:22:36;103355.66;;;-4.08;66.10
76766;BME280;65707;52.362;6.588;2024-01-10T02:25:05;103360.09;;;-4.12;66.12
76766;BME280;65707;52.362;6.588;2024-01-10T02:27:32;103349.63;;;-4.19;66.13
76766;BME280;65707;52.362;6.588;2024-01-10T02:30:01;103338.41;;;-4.32;66.72
76766;BME280;65707;52.362;6.588;2024-01-10T02:32:28;103354.09;;;-4.24;66.92
76766;BME280;65707;52.362;6.588;2024-01-10T02:34:55;103355.88;;;-4.32;66.67
76766;BME280;65707;52.362;6.588;2024-01-10T02:37:22;103349.75;;;-4.31;67.01
76766;BME280;65707;52.362;6.588;2024-01-10T02:39:49;103343.56;;;-4.20;66.36
76766;BME280;65707;52.362;6.588;2024-01-10T02:42:17;103339.91;;;-4.07;66.55
76766;BME280;65707;52.362;6.588;2024-01-10T02:44:44;103333.78;;;-4.04;66.16
76766;BME280;65707;52.362;6.588;2024-01-10T02:47:12;103332.06;;;-4.05;65.68
76766;BME280;65707;52.362;6.588;2024-01-10T02:49:38;103338.25;;;-4.14;66.62
76766;BME280;65707;52.362;6.588;2024-01-10T02:52:05;103339.19;;;-4.18;66.30
76766;BME280;65707;52.362;6.588;2024-01-10T02:54:32;103328.59;;;-4.07;66.32
76766;BME280;65707;52.362;6.588;2024-01-10T02:56:59;103324.97;;;-3.97;66.36
76766;BME280;65707;52.362;6.588;2024-01-10T02:59:27;103322.38;;;-4.02;65.87
76766;BME280;65707;52.362;6.588;2024-01-10T03:01:53;103328.59;;;-4.09;66.37
76766;BME280;65707;52.362;6.588;2024-01-10T03:04:20;103331.19;;;-4.07;66.38
76766;BME280;65707;52.362;6.588;2024-01-10T03:06:47;103329.47;;;-4.10;66.20
76766;BME280;65707;52.362;6.588;2024-01-10T03:09:13;103325.03;;;-4.05;66.18
76766;BME280;65707;52.362;6.588;2024-01-10T03:11:40;103323.34;;;-4.09;65.91
76766;BME280;65707;52.362;6.588;2024-01-10T03:14:09;103326.03;;;-4.15;66.11
76766;BME280;65707;52.362;6.588;2024-01-10T03:16:38;103319.84;;;-4.08;65.98
76766;BME280;65707;52.362;6.588;2024-01-10T03:19:03;103322.34;;;-3.99;65.63
76766;BME280;65707;52.362;6.588;2024-01-10T03:21:30;103309.44;;;-4.15;66.10
76766;BME280;65707;52.362;6.588;2024-01-10T03:23:59;103314.50;;;-3.99;65.29
76766;BME280;65707;52.362;6.588;2024-01-10T03:26:27;103314.53;;;-4.03;65.54
76766;BME280;65707;52.362;6.588;2024-01-10T03:28:55;103308.47;;;-4.07;66.05
76766;BME280;65707;52.362;6.588;2024-01-10T03:31:23;103304.00;;;-3.99;65.75
76766;BME280;65707;52.362;6.588;2024-01-10T03:33:51;103295.06;;;-3.81;65.47
76766;BME280;65707;52.362;6.588;2024-01-10T03:36:17;103299.53;;;-3.88;65.61
76766;BME280;65707;52.362;6.588;2024-01-10T03:38:44;103303.97;;;-3.93;65.48
76766;BME280;65707;52.362;6.588;2024-01-10T03:41:13;103300.44;;;-3.90;65.22
76766;BME280;65707;52.362;6.588;2024-01-10T03:43:40;103314.50;;;-3.99;66.22
76766;BME280;65707;52.362;6.588;2024-01-10T03:46:07;103302.22;;;-3.95;65.99
76766;BME280;65707;52.362;6.588;2024-01-10T03:48:33;103316.25;;;-3.98;65.71
76766;BME280;65707;52.362;6.588;2024-01-10T03:51:02;103316.25;;;-3.98;65.74
76766;BME280;65707;52.362;6.588;2024-01-10T03:53:30;103313.69;;;-4.04;66.17
76766;BME280;65707;52.362;6.588;2024-01-10T03:55:56;103317.94;;;-3.94;66.01
76766;BME280;65707;52.362;6.588;2024-01-10T03:58:23;103318.13;;;-4.09;66.56
76766;BME280;65707;52.362;6.588;2024-01-10T04:00:51;103314.50;;;-3.99;66.07
76766;BME280;65707;52.362;6.588;2024-01-10T04:03:18;103321.59;;;-4.10;66.78
76766;BME280;65707;52.362;6.588;2024-01-10T04:05:45;103316.34;;;-4.10;66.70
76766;BME280;65707;52.362;6.588;2024-01-10T04:08:13;103304.13;;;-4.08;66.79
76766;BME280;65707;52.362;6.588;2024-01-10T04:10:39;103306.91;;;-4.23;67.26
76766;BME280;65707;52.362;6.588;2024-01-10T04:13:06;103304.22;;;-4.17;67.33
76766;BME280;65707;52.362;6.588;2024-01-10T04:15:33;103298.81;;;-4.03;66.41
76766;BME280;65707;52.362;6.588;2024-01-10T04:18:00;103297.09;;;-4.06;66.75
76766;BME280;65707;52.362;6.588;2024-01-10T04:20:28;103288.38;;;-4.08;66.42
76766;BME280;65707;52.362;6.588;2024-01-10T04:22:54;103299.75;;;-4.09;66.48
76766;BME280;65707;52.362;6.588;2024-01-10T04:25:22;103288.34;;;-4.03;65.99
76766;BME280;65707;52.362;6.588;2024-01-10T04:27:49;103285.63;;;-3.93;65.99
76766;BME280;65707;52.362;6.588;2024-01-10T04:30:16;103291.78;;;-4.00;66.14
76766;BME280;65707;52.362;6.588;2024-01-10T04:32:43;103299.81;;;-4.13;66.17
76766;BME280;65707;52.362;6.588;2024-01-10T04:35:09;103303.28;;;-4.13;66.11
76766;BME280;65707;52.362;6.588;2024-01-10T04:37:36;103291.88;;;-4.07;66.08
76766;BME280;65707;52.362;6.588;2024-01-10T04:40:04;103287.63;;;-4.19;66.10
76766;BME280;65707;52.362;6.588;2024-01-10T04:42:33;103284.91;;;-4.10;65.86
76766;BME280;65707;52.362;6.588;2024-01-10T04:44:59;103277.13;;;-4.19;66.21
76766;BME280;65707;52.362;6.588;2024-01-10T04:47:26;103273.59;;;-4.13;66.29
76766;BME280;65707;52.362;6.588;2024-01-10T04:49:53;103272.75;;;-4.17;65.77
76766;BME280;65707;52.362;6.588;2024-01-10T04:52:19;103258.69;;;-4.08;65.24
76766;BME280;65707;52.362;6.588;2024-01-10T04:54:46;103263.09;;;-4.10;65.13
76766;BME280;65707;52.362;6.588;2024-01-10T04:57:13;103262.16;;;-4.08;64.75
76766;BME280;65707;52.362;6.588;2024-01-10T04:59:41;103263.00;;;-4.03;64.50
76766;BME280;65707;52.362;6.588;2024-01-10T05:02:07;103268.38;;;-4.15;64.44
76766;BME280;65707;52.362;6.588;2024-01-10T05:04:34;103273.66;;;-4.19;64.57
76766;BME280;65707;52.362;6.588;2024-01-10T05:07:01;103281.56;;;-4.25;64.96
76766;BME280;65707;52.362;6.588;2024-01-10T05:09:27;103271.78;;;-4.10;64.49
76766;BME280;65707;52.362;6.588;2024-01-10T05:11:54;103270.09;;;-4.14;64.35
76766;BME280;65707;52.362;6.588;2024-01-10T05:14:21;103268.56;;;-4.33;64.94
76766;BME280;65707;52.362;6.588;2024-01-10T05:16:49;103273.63;;;-4.15;64.64
76766;BME280;65707;52.362;6.588;2024-01-10T05:19:17;103278.06;;;-4.21;63.92
76766;BME280;65707;52.362;6.588;2024-01-10T05:21:43;103274.44;;;-4.13;63.63
76766;BME280;65707;52.362;6.588;2024-01-10T05:24:10;103280.56;;;-4.11;63.49
76766;BME280;65707;52.362;6.588;2024-01-10T05:26:37;103265.72;;;-4.12;63.34
76766;BME280;65707;52.362;6.588;2024-01-10T05:29:04;103278.91;;;-4.21;63.86
76766;BME280;65707;52.362;6.588;2024-01-10T05:31:31;103270.91;;;-4.07;63.24
76766;BME280;65707;52.362;6.588;2024-01-10T05:33:59;103269.94;;;-4.00;63.10
76766;BME280;65707;52.362;6.588;2024-01-10T05:36:25;103267.41;;;-4.06;63.06
76766;BME280;65707;52.362;6.588;2024-01-10T05:38:52;103263.84;;;-4.01;63.40
76766;BME280;65707;52.362;6.588;2024-01-10T05:41:19;103271.75;;;-4.04;62.83
76766;BME280;65707;52.362;6.588;2024-01-10T05:43:45;103264.66;;;-3.93;62.58
76766;BME280;65707;52.362;6.588;2024-01-10T05:46:12;103260.22;;;-3.89;62.65
76766;BME280;65707;52.362;6.588;2024-01-10T05:48:41;103255.81;;;-3.86;61.97
76766;BME280;65707;52.362;6.588;2024-01-10T05:51:09;103256.00;;;-4.01;62.36
76766;BME280;65707;52.362;6.588;2024-01-10T05:53:35;103265.63;;;-4.04;62.45
76766;BME280;65707;52.362;6.588;2024-01-10T05:56:02;103250.88;;;-4.13;62.86
76766;BME280;65707;52.362;6.588;2024-01-10T05:58:29;103251.09;;;-4.34;62.90
76766;BME280;65707;52.362;6.588;2024-01-10T06:00:56;103250.22;;;-4.34;62.73
76766;BME280;65707;52.362;6.588;2024-01-10T06:03:22;103242.41;;;-4.39;62.38
76766;BME280;65707;52.362;6.588;2024-01-10T06:05:51;103230.97;;;-4.32;62.34
76766;BME280;65707;52.362;6.588;2024-01-10T06:08:19;103223.13;;;-4.29;61.39
76766;BME280;65707;52.362;6.588;2024-01-10T06:10:46;103226.56;;;-4.28;60.66
76766;BME280;65707;52.362;6.588;2024-01-10T06:13:12;103216.91;;;-4.22;60.55
76766;BME280;65707;52.362;6.588;2024-01-10T06:15:39;103214.09;;;-4.07;60.32
76766;BME280;65707;52.362;6.588;2024-01-10T06:18:06;103225.56;;;-4.15;59.94
76766;BME280;65707;52.362;6.588;2024-01-10T06:20:33;103222.81;;;-4.05;59.31
76766;BME280;65707;52.362;6.588;2024-01-10T06:23:03;103213.91;;;-3.90;57.99
76766;BME280;65707;52.362;6.588;2024-01-10T06:25:31;103212.09;;;-3.84;57.82
76766;BME280;65707;52.362;6.588;2024-01-10T06:27:58;103209.53;;;-3.88;57.16
76766;BME280;65707;52.362;6.588;2024-01-10T06:30:25;103207.69;;;-3.80;57.72
76766;BME280;65707;52.362;6.588;2024-01-10T06:32:52;103215.81;;;-4.03;58.09
76766;BME280;65707;52.362;6.588;2024-01-10T06:35:18;103209.47;;;-3.85;57.59
76766;BME280;65707;52.362;6.588;2024-01-10T06:37:45;103207.81;;;-3.92;58.02
76766;BME280;65707;52.362;6.588;2024-01-10T06:40:12;103200.69;;;-3.81;57.92
76766;BME280;65707;52.362;6.588;2024-01-10T06:42:40;103204.25;;;-3.87;57.27
76766;BME280;65707;52.362;6.588;2024-01-10T06:45:07;103211.34;;;-3.93;57.70
76766;BME280;65707;52.362;6.588;2024-01-10T06:47:37;103211.25;;;-3.87;58.51
76766;BME280;65707;52.362;6.588;2024-01-10T06:50:04;103207.00;;;-3.99;58.43
76766;BME280;65707;52.362;6.588;2024-01-10T06:52:34;103221.84;;;-3.96;58.67
76766;BME280;65707;52.362;6.588;2024-01-10T06:55:00;103235.97;;;-4.09;59.17
76766;BME280;65707;52.362;6.588;2024-01-10T06:57:29;103234.09;;;-3.98;58.88
76766;BME280;65707;52.362;6.588;2024-01-10T06:59:58;103235.81;;;-3.96;59.38
76766;BME280;65707;52.362;6.588;2024-01-10T07:02:26;103230.66;;;-4.03;59.96
76766;BME280;65707;52.362;6.588;2024-01-10T07:04:53;103242.81;;;-3.95;60.14
76766;BME280;65707;52.362;6.588;2024-01-10T07:07:20;103241.16;;;-4.03;60.62
76766;BME280;65707;52.362;6.588;2024-01-10T07:09:46;103242.94;;;-4.07;61.30
76766;BME280;65707;52.362;6.588;2024-01-10T07:12:13;103241.13;;;-4.00;61.04
76766;BME280;65707;52.362;6.588;2024-01-10T07:14:40;103252.66;;;-4.15;61.61
76766;BME280;65707;52.362;6.588;2024-01-10T07:17:08;103253.31;;;-3.95;61.51
76766;BME280;65707;52.362;6.588;2024-01-10T07:19:35;103256.06;;;-4.10;62.21
76766;BME280;65707;52.362;6.588;2024-01-10T07:22:01;103249.78;;;-3.95;61.53
76766;BME280;65707;52.362;6.588;2024-01-10T07:24:28;103247.31;;;-4.06;61.68
76766;BME280;65707;52.362;6.588;2024-01-10T07:26:56;103243.81;;;-4.08;62.12
76766;BME280;65707;52.362;6.588;2024-01-10T07:29:22;103243.75;;;-4.02;61.49
76766;BME280;65707;52.362;6.588;2024-01-10T07:31:49;103245.47;;;-3.98;61.48
76766;BME280;65707;52.362;6.588;2024-01-10T07:34:19;103246.41;;;-4.03;61.53
76766;BME280;65707;52.362;6.588;2024-01-10T07:36:46;103250.81;;;-4.10;61.40
76766;BME280;65707;52.362;6.588;2024-01-10T07:39:13;103236.94;;;-4.15;61.23
76766;BME280;65707;52.362;6.588;2024-01-10T07:41:43;103248.19;;;-4.05;60.99
76766;BME280;65707;52.362;6.588;2024-01-10T07:44:10;103251.63;;;-4.02;61.03
76766;BME280;65707;52.362;6.588;2024-01-10T07:46:37;103245.34;;;-3.89;60.12
76766;BME280;65707;52.362;6.588;2024-01-10T07:49:04;103239.19;;;-3.86;60.03
76766;BME280;65707;52.362;6.588;2024-01-10T07:51:32;103245.38;;;-3.90;60.28
76766;BME280;65707;52.362;6.588;2024-01-10T07:53:59;103254.19;;;-3.99;60.27
76766;BME280;65707;52.362;6.588;2024-01-10T07:56:25;103247.03;;;-3.83;60.70
76766;BME280;65707;52.362;6.588;2024-01-10T07:58:52;103254.94;;;-3.86;59.99
76766;BME280;65707;52.362;6.588;2024-01-10T08:01:19;103251.16;;;-3.64;59.91
76766;BME280;65707;52.362;6.588;2024-01-10T08:03:46;103244.69;;;-3.39;58.60
76766;BME280;65707;52.362;6.588;2024-01-10T08:06:13;103248.25;;;-3.42;58.72
76766;BME280;65707;52.362;6.588;2024-01-10T08:08:41;103242.16;;;-3.45;59.01
76766;BME280;65707;52.362;6.588;2024-01-10T08:11:08;103230.50;;;-3.25;58.67
76766;BME280;65707;52.362;6.588;2024-01-10T08:13:35;103242.72;;;-3.24;58.34
76766;BME280;65707;52.362;6.588;2024-01-10T08:16:02;103250.81;;;-3.39;58.55
76766;BME280;65707;52.362;6.588;2024-01-10T08:18:29;103250.75;;;-3.34;58.86
76766;BME280;65707;52.362;6.588;2024-01-10T08:20:56;103254.13;;;-3.26;58.82
76766;BME280;65707;52.362;6.588;2024-01-10T08:23:23;103249.69;;;-3.21;58.25
76766;BME280;65707;52.362;6.588;2024-01-10T08:25:51;103244.28;;;-3.10;57.47
76766;BME280;65707;52.362;6.588;2024-01-10T08:28:18;103240.81;;;-3.14;57.58
76766;BME280;65707;52.362;6.588;2024-01-10T08:30:44;103244.41;;;-3.18;57.56
76766;BME280;65707;52.362;6.588;2024-01-10T08:33:11;103238.75;;;-2.92;57.51
76766;BME280;65707;52.362;6.588;2024-01-10T08:35:38;103243.16;;;-2.94;57.04
76766;BME280;65707;52.362;6.588;2024-01-10T08:38:05;103232.56;;;-2.88;56.30
76766;BME280;65707;52.362;6.588;2024-01-10T08:40:33;103219.59;;;-2.49;54.57
76766;BME280;65707;52.362;6.588;2024-01-10T08:43:01;103215.31;;;-2.54;54.48
76766;BME280;65707;52.362;6.588;2024-01-10T08:45:27;103225.97;;;-2.62;53.90
76766;BME280;65707;52.362;6.588;2024-01-10T08:47:54;103214.59;;;-2.64;53.76
76766;BME280;65707;52.362;6.588;2024-01-10T08:50:23;103197.19;;;-2.68;53.79
76766;BME280;65707;52.362;6.588;2024-01-10T08:52:49;103198.00;;;-2.64;53.86
76766;BME280;65707;52.362;6.588;2024-01-10T08:55:16;103204.94;;;-2.62;53.81
76766;BME280;65707;52.362;6.588;2024-01-10T08:57:43;103206.72;;;-2.62;53.82
76766;BME280;65707;52.362;6.588;2024-01-10T09:00:14;103218.09;;;-2.63;53.63
76766;BME280;65707;52.362;6.588;2024-01-10T09:02:42;103214.09;;;-2.84;54.30
76766;BME280;65707;52.362;6.588;2024-01-10T09:05:08;103203.91;;;-2.52;53.44
76766;BME280;65707;52.362;6.588;2024-01-10T09:07:35;103211.94;;;-2.59;53.41
76766;BME280;65707;52.362;6.588;2024-01-10T09:10:03;103209.13;;;-2.50;53.59
76766;BME280;65707;52.362;6.588;2024-01-10T09:12:31;103208.03;;;-2.37;52.53
76766;BME280;65707;52.362;6.588;2024-01-10T09:14:57;103216.97;;;-2.49;53.06
76766;BME280;65707;52.362;6.588;2024-01-10T09:17:25;103208.03;;;-2.39;52.94
76766;BME280;65707;52.362;6.588;2024-01-10T09:19:53;103197.38;;;-2.31;52.29
76766;BME280;65707;52.362;6.588;2024-01-10T09:22:20;103198.91;;;-2.21;51.81
76766;BME280;65707;52.362;6.588;2024-01-10T09:24:46;103215.81;;;-2.33;52.25
76766;BME280;65707;52.362;6.588;2024-01-10T09:27:13;103207.78;;;-2.25;52.51
76766;BME280;65707;52.362;6.588;2024-01-10T09:29:40;103198.69;;;-2.09;51.98
76766;BME280;65707;52.362;6.588;2024-01-10T09:32:07;103210.34;;;-2.22;52.40
76766;BME280;65707;52.362;6.588;2024-01-10T09:34:36;103201.22;;;-2.05;51.30
76766;BME280;65707;52.362;6.588;2024-01-10T09:37:03;103207.06;;;-1.91;51.03
76766;BME280;65707;52.362;6.588;2024-01-10T09:39:30;103199.19;;;-1.91;51.19
76766;BME280;65707;52.362;6.588;2024-01-10T09:41:58;103204.38;;;-1.88;52.07
76766;BME280;65707;52.362;6.588;2024-01-10T09:44:26;103210.41;;;-1.41;50.45
76766;BME280;65707;52.362;6.588;2024-01-10T09:46:54;103206.16;;;-1.10;50.51
76766;BME280;65707;52.362;6.588;2024-01-10T09:49:21;103192.50;;;-0.57;48.80
76766;BME280;65707;52.362;6.588;2024-01-10T09:51:50;103189.69;;;0.12;47.90
76766;BME280;65707;52.362;6.588;2024-01-10T09:54:24;103183.38;;;1.00;45.39
76766;BME280;65707;52.362;6.588;2024-01-10T09:56:52;103171.34;;;1.17;44.64
76766;BME280;65707;52.362;6.588;2024-01-10T09:59:20;103161.22;;;1.54;44.25
76766;BME280;65707;52.362;6.588;2024-01-10T10:01:47;103163.16;;;1.97;42.35
76766;BME280;65707;52.362;6.588;2024-01-10T10:04:17;103159.03;;;2.13;41.63
76766;BME280;65707;52.362;6.588;2024-01-10T10:06:46;103156.09;;;2.65;41.21
76766;BME280;65707;52.362;6.588;2024-01-10T10:09:14;103159.88;;;2.37;41.38
76766;BME280;65707;52.362;6.588;2024-01-10T10:11:42;103158.41;;;2.94;40.38
76766;BME280;65707;52.362;6.588;2024-01-10T10:14:14;103154.31;;;2.87;39.76
76766;BME280;65707;52.362;6.588;2024-01-10T10:16:41;103149.38;;;3.20;39.33
76766;BME280;65707;52.362;6.588;2024-01-10T10:19:08;103159.53;;;3.31;39.03
76766;BME280;65707;52.362;6.588;2024-01-10T10:21:36;103156.75;;;3.74;38.00
76766;BME280;65707;52.362;6.588;2024-01-10T10:24:04;103167.84;;;4.02;37.22
76766;BME280;65707;52.362;6.588;2024-01-10T10:26:33;103164.28;;;3.83;37.56
76766;BME280;65707;52.362;6.588;2024-01-10T10:29:01;103164.53;;;3.97;38.27
76766;BME280;65707;52.362;6.588;2024-01-10T10:31:28;103166.06;;;4.21;37.10
76766;BME280;65707;52.362;6.588;2024-01-10T10:33:59;103154.94;;;4.50;36.30
76766;BME280;65707;52.362;6.588;2024-01-10T10:36:27;103152.66;;;4.78;35.79
76766;BME280;65707;52.362;6.588;2024-01-10T10:38:59;103157.81;;;4.81;35.92
76766;BME280;65707;52.362;6.588;2024-01-10T10:41:30;103140.75;;;5.21;34.77
76766;BME280;65707;52.362;6.588;2024-01-10T10:44:02;103146.19;;;4.65;35.25
76766;BME280;65707;52.362;6.588;2024-01-10T10:46:35;103142.38;;;5.06;35.10
76766;BME280;65707;52.362;6.588;2024-01-10T10:49:11;103151.22;;;4.90;34.14
76766;BME280;65707;52.362;6.588;2024-01-10T10:51:38;103143.78;;;4.96;34.53
76766;BME280;65707;52.362;6.588;2024-01-10T10:54:06;103146.63;;;5.10;35.37
76766;BME280;65707;52.362;6.588;2024-01-10T10:56:37;103126.91;;;5.81;33.59
76766;BME280;65707;52.362;6.588;2024-01-10T10:59:07;103135.06;;;5.78;33.65
76766;BME280;65707;52.362;6.588;2024-01-10T11:01:36;103133.69;;;6.19;33.31
76766;BME280;65707;52.362;6.588;2024-01-10T11:04:03;103131.84;;;5.88;33.95
76766;BME280;65707;52.362;6.588;2024-01-10T11:06:32;103134.69;;;5.85;33.55
76766;BME280;65707;52.362;6.588;2024-01-10T11:09:02;103135.09;;;6.26;32.84
76766;BME280;65707;52.362;6.588;2024-01-10T11:11:43;103124.25;;;6.29;31.95
76766;BME280;65707;52.362;6.588;2024-01-10T11:14:34;103131.47;;;6.11;32.05
76766;BME280;65707;52.362;6.588;2024-01-10T11:17:44;103130.81;;;5.91;33.44
76766;BME280;65707;52.362;6.588;2024-01-10T11:20:49;103131.16;;;6.49;31.76
76766;BME280;65707;52.362;6.588;2024-01-10T11:23:38;103135.44;;;6.67;31.40
76766;BME280;65707;52.362;6.588;2024-01-10T11:26:07;103128.41;;;6.50;32.01
76766;BME280;65707;52.362;6.588;2024-01-10T11:28:37;103113.66;;;6.74;31.05
76766;BME280;65707;52.362;6.588;2024-01-10T11:31:05;103125.66;;;6.52;31.24
76766;BME280;65707;52.362;6.588;2024-01-10T11:33:34;103112.47;;;6.80;31.23
76766;BME280;65707;52.362;6.588;2024-01-10T11:36:08;103111.25;;;6.70;31.62
76766;BME280;65707;52.362;6.588;2024-01-10T11:38:47;103108.59;;;6.99;30.80
76766;BME280;65707;52.362;6.588;2024-01-10T11:41:20;103109.63;;;6.67;31.68
76766;BME280;65707;52.362;6.588;2024-01-10T11:44:29;103106.44;;;7.06;30.83
76766;BME280;65707;52.362;6.588;2024-01-10T11:46:57;103092.41;;;7.18;30.86
76766;BME280;65707;52.362;6.588;2024-01-10T11:49:25;103103.97;;;7.46;29.97
76766;BME280;65707;52.362;6.588;2024-01-10T11:51:54;103104.38;;;7.11;31.24
76766;BME280;65707;52.362;6.588;2024-01-10T11:54:38;103105.22;;;7.41;30.21
76766;BME280;65707;52.362;6.588;2024-01-10T11:57:18;103094.47;;;7.13;30.88
76766;BME280;65707;52.362;6.588;2024-01-10T11:59:50;103097.72;;;7.18;31.05
76766;BME280;65707;52.362;6.588;2024-01-10T12:02:19;103105.63;;;7.63;30.96
76766;BME280;65707;52.362;6.588;2024-01-10T12:04:47;103096.25;;;7.98;29.38
76766;BME280;65707;52.362;6.588;2024-01-10T12:07:15;103108.69;;;7.57;30.35
76766;BME280;65707;52.362;6.588;2024-01-10T12:09:42;103105.03;;;7.86;29.52
76766;BME280;65707;52.362;6.588;2024-01-10T12:12:09;103100.38;;;7.75;29.26
76766;BME280;65707;52.362;6.588;2024-01-10T12:14:36;103100.28;;;7.77;29.17
76766;BME280;65707;52.362;6.588;2024-01-10T12:17:05;103099.22;;;7.79;28.79
76766;BME280;65707;52.362;6.588;2024-01-10T12:19:34;103098.53;;;7.76;29.27
76766;BME280;65707;52.362;6.588;2024-01-10T12:22:01;103100.66;;;8.13;28.60
76766;BME280;65707;52.362;6.588;2024-01-10T12:24:28;103093.38;;;7.87;28.64
76766;BME280;65707;52.362;6.588;2024-01-10T12:26:55;103087.22;;;7.86;28.86
76766;BME280;65707;52.362;6.588;2024-01-10T12:29:22;103087.78;;;7.92;28.92
76766;BME280;65707;52.362;6.588;2024-01-10T12:31:50;103086.41;;;8.27;28.58
76766;BME280;65707;52.362;6.588;2024-01-10T12:34:19;103087.38;;;8.12;28.47
76766;BME280;65707;52.362;6.588;2024-01-10T12:36:46;103093.69;;;7.82;27.66
76766;BME280;65707;52.362;6.588;2024-01-10T12:39:14;103085.38;;;7.87;28.78
76766;BME280;65707;52.362;6.588;2024-01-10T12:41:41;103082.78;;;8.14;27.81
76766;BME280;65707;52.362;6.588;2024-01-10T12:44:10;103086.53;;;7.97;29.52
76766;BME280;65707;52.362;6.588;2024-01-10T12:46:49;103078.19;;;8.30;28.30
76766;BME280;65707;52.362;6.588;2024-01-10T12:49:19;103064.94;;;8.55;28.45
76766;BME280;65707;52.362;6.588;2024-01-10T12:51:48;103083.25;;;8.34;28.63
76766;BME280;65707;52.362;6.588;2024-01-10T12:54:15;103086.22;;;8.02;29.19
76766;BME280;65707;52.362;6.588;2024-01-10T12:56:42;103075.69;;;8.67;28.99